Time;durP1;ratioP1;P1;durP2;ratioP2;P2;SDS_P1;SDS_P2;PMS_P1;PMS_P2;Temp;Humidity;BMP_temperature;BMP_pressure;BME280_temperature;BME280_humidity;BME280_pressure;Samples;Min_cycle;Max_cycle;Signal;HPM_P1;HPM_P2
2023/10/07 00:01:52;;;;;;;;;;;16.70;99.90;;;;;;5078628;28;20042;-68
2023/10/07 00:04:18;;;;;;;;;;;16.70;99.90;;;;;;5089905;28;19920;-67
2023/10/07 00:06:45;;;;;;;;;;;16.70;99.90;;;;;;5090606;28;19940;-69
2023/10/07 00:09:12;;;;;;;;;;;16.70;99.90;;;;;;5070694;28;20369;-69
2023/10/07 00:11:38;;;;;;;;;;;16.70;99.90;;;;;;5083182;28;19955;-68
2023/10/07 00:14:08;;;;;;;;;;;16.80;99.90;;;;;;5083001;28;19956;-68
2023/10/07 00:16:36;;;;;;;;;;;16.80;99.90;;;;;;5073921;28;19991;-67
2023/10/07 00:19:03;;;;;;;;;;;16.80;99.90;;;;;;5061399;28;19920;-70
2023/10/07 00:21:52;;;;;;;;;;;16.70;99.90;;;;;;5063475;28;19916;-68
2023/10/07 00:24:16;;;;;;;;;;;16.80;99.90;;;;;;5066705;28;19965;-67
2023/10/07 00:26:43;;;;;;;;;;;16.70;99.90;;;;;;5072841;28;19924;-69
2023/10/07 00:29:12;;;;;;;;;;;16.80;99.90;;;;;;5059516;28;19966;-68
2023/10/07 00:31:40;;;;;;;;;;;16.80;99.90;;;;;;5059086;28;19939;-67
2023/10/07 00:34:14;;;;;;;;;;;16.80;99.90;;;;;;5060429;28;20306;-69
2023/10/07 00:39:09;;;;;;;;;;;16.80;99.90;;;;;;5068967;28;19955;-68
2023/10/07 00:41:45;;;;;;;;;;;16.80;99.90;;;;;;5065494;28;19995;-69
2023/10/07 00:44:47;;;;;;;;;;;16.80;99.90;;;;;;5073697;28;19932;-67
2023/10/07 00:49:38;;;;;;;;;;;16.80;99.90;;;;;;5074267;28;19981;-68
2023/10/07 00:52:05;;;;;;;;;;;16.80;99.90;;;;;;5074569;28;19925;-68
2023/10/07 00:54:44;;;;;;;;;;;16.80;99.90;;;;;;5058812;28;20062;-66
2023/10/07 00:57:14;;;;;;;;;;;16.80;99.90;;;;;;5075003;28;20019;-69
2023/10/07 00:59:49;;;;;;;;;;;16.80;99.90;;;;;;5075405;28;20035;-67
2023/10/07 01:02:28;;;;;;;;;;;16.80;99.90;;;;;;5069089;28;19924;-69
2023/10/07 01:04:58;;;;;;;;;;;16.80;99.90;;;;;;5064945;28;19967;-67
2023/10/07 01:07:25;;;;;;;;;;;16.80;99.90;;;;;;5061109;28;20417;-69
2023/10/07 01:10:30;;;;;;;;;;;16.80;99.90;;;;;;5086879;28;19920;-68
2023/10/07 01:12:51;;;;;;;;;;;16.80;99.90;;;;;;5075250;28;20317;-68
2023/10/07 01:17:53;;;;;;;;;;;16.80;99.90;;;;;;5083551;28;19920;-69
2023/10/07 01:20:22;;;;;;;;;;;16.80;99.90;;;;;;5085691;28;19920;-67
2023/10/07 01:23:04;;;;;;;;;;;16.60;99.90;;;;;;5066743;28;20402;-68
2023/10/07 01:25:43;;;;;;;;;;;16.40;99.90;;;;;;5086956;28;19928;-69
2023/10/07 01:28:08;;;;;;;;;;;16.20;99.90;;;;;;5067336;28;19958;-70
2023/10/07 01:30:36;;;;;;;;;;;16.10;99.90;;;;;;5077205;28;19920;-68
2023/10/07 01:33:08;;;;;;;;;;;16.10;99.90;;;;;;5081158;28;19920;-71
2023/10/07 01:35:39;;;;;;;;;;;16.10;99.90;;;;;;5057624;28;20416;-70
2023/10/07 01:38:07;;;;;;;;;;;16.10;99.90;;;;;;5048311;28;20023;-68
2023/10/07 01:41:38;;;;;;;;;;;16.10;99.90;;;;;;5053038;28;19959;-69
2023/10/07 01:43:28;;;;;;;;;;;16.10;99.90;;;;;;5044663;28;19924;-70
2023/10/07 01:45:54;;;;;;;;;;;16.10;99.90;;;;;;5075592;28;19917;-70
2023/10/07 01:48:20;;;;;;;;;;;16.00;99.90;;;;;;5073849;28;19978;-69
2023/10/07 01:50:46;;;;;;;;;;;16.00;99.90;;;;;;5065746;28;19954;-69
2023/10/07 01:53:12;;;;;;;;;;;16.10;99.90;;;;;;5081733;28;19916;-68
2023/10/07 01:55:42;;;;;;;;;;;16.10;99.90;;;;;;5062174;28;19965;-69
2023/10/07 01:58:14;;;;;;;;;;;16.00;99.90;;;;;;5042535;28;20521;-70
2023/10/07 02:00:44;;;;;;;;;;;16.00;99.90;;;;;;5080938;28;20288;-69
2023/10/07 02:03:13;;;;;;;;;;;16.00;99.90;;;;;;5067116;28;19920;-70
2023/10/07 02:05:46;;;;;;;;;;;16.00;99.90;;;;;;5081378;28;20006;-70
2023/10/07 02:08:14;;;;;;;;;;;16.00;99.90;;;;;;5055823;28;19943;-70
2023/10/07 02:10:45;;;;;;;;;;;16.00;99.90;;;;;;5041940;28;19943;-69
2023/10/07 02:13:19;;;;;;;;;;;16.00;99.90;;;;;;5083880;28;19964;-70
2023/10/07 02:15:48;;;;;;;;;;;16.10;99.90;;;;;;5062528;28;20225;-69
2023/10/07 02:18:16;;;;;;;;;;;16.00;99.90;;;;;;5073190;28;19916;-69
2023/10/07 02:20:43;;;;;;;;;;;16.00;99.90;;;;;;5065786;28;19955;-69
2023/10/07 02:23:12;;;;;;;;;;;16.10;99.90;;;;;;5060521;28;20037;-70
2023/10/07 02:25:40;;;;;;;;;;;16.10;99.90;;;;;;5071648;28;19920;-69
2023/10/07 02:28:06;;;;;;;;;;;16.10;99.90;;;;;;5055945;28;20280;-71
2023/10/07 02:30:38;;;;;;;;;;;16.10;99.90;;;;;;5047082;28;19927;-69
2023/10/07 02:33:08;;;;;;;;;;;16.20;99.90;;;;;;5059836;28;19916;-70
2023/10/07 02:35:36;;;;;;;;;;;16.20;99.90;;;;;;5066017;28;20060;-71
2023/10/07 02:38:03;;;;;;;;;;;16.20;99.90;;;;;;5079324;28;20089;-70
2023/10/07 02:40:48;;;;;;;;;;;16.20;99.90;;;;;;5067278;28;20375;-70
2023/10/07 02:43:15;;;;;;;;;;;16.20;99.90;;;;;;5067924;28;19977;-71
2023/10/07 02:45:42;;;;;;;;;;;16.20;99.90;;;;;;5046684;28;19928;-69
2023/10/07 02:48:11;;;;;;;;;;;16.20;99.90;;;;;;5082004;28;20047;-70
2023/10/07 02:50:41;;;;;;;;;;;16.30;99.90;;;;;;5054096;28;19924;-69
2023/10/07 02:53:14;;;;;;;;;;;16.30;99.90;;;;;;5046082;28;20088;-71
2023/10/07 02:55:58;;;;;;;;;;;16.30;99.90;;;;;;5076774;28;19924;-70
2023/10/07 02:58:27;;;;;;;;;;;16.30;99.90;;;;;;5067236;28;19920;-70
2023/10/07 03:00:52;;;;;;;;;;;16.30;99.90;;;;;;5080008;28;19924;-69
2023/10/07 03:05:57;;;;;;;;;;;16.30;99.90;;;;;;5066248;28;20008;-69
2023/10/07 03:08:31;;;;;;;;;;;16.40;99.90;;;;;;5079422;28;20308;-69
2023/10/07 03:11:13;;;;;;;;;;;16.50;99.90;;;;;;5074671;28;20445;-69
2023/10/07 03:13:39;;;;;;;;;;;16.50;99.90;;;;;;5064240;28;20357;-69
2023/10/07 03:18:48;;;;;;;;;;;16.60;99.90;;;;;;5072269;28;20016;-69
2023/10/07 03:21:15;;;;;;;;;;;16.60;99.90;;;;;;5071915;28;19916;-68
2023/10/07 03:23:46;;;;;;;;;;;16.70;99.90;;;;;;5070558;28;19922;-68
2023/10/07 03:26:18;;;;;;;;;;;16.60;99.90;;;;;;5048688;28;20346;-68
2023/10/07 03:28:56;;;;;;;;;;;16.70;99.90;;;;;;5069160;28;19971;-69
2023/10/07 03:31:33;;;;;;;;;;;16.70;99.90;;;;;;5073403;28;19922;-70
2023/10/07 03:33:58;;;;;;;;;;;16.70;99.90;;;;;;5056106;28;19927;-70
2023/10/07 03:41:52;;;;;;;;;;;16.80;99.90;;;;;;5057416;28;19986;-69
2023/10/07 03:44:18;;;;;;;;;;;16.70;99.90;;;;;;5073335;28;19916;-68
2023/10/07 03:46:44;;;;;;;;;;;16.80;99.90;;;;;;5043957;28;19928;-68
2023/10/07 03:49:11;;;;;;;;;;;16.80;99.90;;;;;;5063975;28;19924;-69
2023/10/07 03:51:36;;;;;;;;;;;16.80;99.90;;;;;;5044852;28;19927;-69
2023/10/07 03:56:59;;;;;;;;;;;16.80;99.90;;;;;;5050680;28;19917;-68
2023/10/07 03:59:27;;;;;;;;;;;16.80;99.90;;;;;;5085008;28;19924;-69
2023/10/07 04:01:53;;;;;;;;;;;16.80;99.90;;;;;;5066506;28;20015;-68
2023/10/07 04:04:22;;;;;;;;;;;16.80;99.90;;;;;;5076083;28;20620;-68
2023/10/07 04:06:48;;;;;;;;;;;16.80;99.90;;;;;;5073239;28;20389;-69
2023/10/07 04:09:14;;;;;;;;;;;16.80;99.90;;;;;;5083595;28;20336;-68
2023/10/07 04:11:48;;;;;;;;;;;16.80;99.90;;;;;;5053408;28;19960;-69
2023/10/07 04:14:27;;;;;;;;;;;16.80;99.90;;;;;;5079720;28;20359;-68
2023/10/07 04:16:54;;;;;;;;;;;16.80;99.90;;;;;;5086410;28;19920;-68
2023/10/07 04:21:50;;;;;;;;;;;16.90;99.90;;;;;;5065821;28;19970;-68
2023/10/07 04:24:18;;;;;;;;;;;16.80;99.90;;;;;;5068844;28;19924;-68
2023/10/07 04:26:54;;;;;;;;;;;16.80;99.90;;;;;;5067781;28;20334;-68
2023/10/07 04:29:21;;;;;;;;;;;16.80;99.90;;;;;;5066506;28;19936;-68
2023/10/07 04:31:47;;;;;;;;;;;16.90;99.90;;;;;;5076397;28;19970;-67
2023/10/07 04:34:16;;;;;;;;;;;16.90;99.90;;;;;;5057877;28;19916;-69
2023/10/07 04:39:29;;;;;;;;;;;16.90;99.90;;;;;;5067986;28;19974;-68
2023/10/07 04:42:00;;;;;;;;;;;16.90;99.90;;;;;;5042896;28;19924;-69
2023/10/07 04:52:50;;;;;;;;;;;16.90;99.90;;;;;;5068310;28;19916;-68
2023/10/07 04:55:19;;;;;;;;;;;16.90;99.90;;;;;;5076809;28;19916;-68
2023/10/07 05:00:30;;;;;;;;;;;16.90;99.90;;;;;;5062976;28;19916;-68
2023/10/07 05:02:57;;;;;;;;;;;17.00;99.90;;;;;;5053982;28;20006;-68
2023/10/07 05:05:24;;;;;;;;;;;17.00;99.90;;;;;;5054590;28;19921;-68
2023/10/07 05:07:50;;;;;;;;;;;17.00;99.90;;;;;;5063910;28;20027;-68
2023/10/07 05:10:20;;;;;;;;;;;16.90;99.90;;;;;;5062425;28;20011;-68
2023/10/07 05:12:46;;;;;;;;;;;17.00;99.90;;;;;;5066697;28;20017;-67
2023/10/07 05:15:13;;;;;;;;;;;17.00;99.90;;;;;;5069189;28;19921;-69
2023/10/07 05:17:39;;;;;;;;;;;16.90;99.90;;;;;;5047846;28;19927;-68
2023/10/07 05:20:25;;;;;;;;;;;16.90;99.90;;;;;;5079219;28;19920;-69
2023/10/07 05:22:50;;;;;;;;;;;16.90;99.90;;;;;;5052089;28;20000;-68
2023/10/07 05:25:16;;;;;;;;;;;16.90;99.90;;;;;;5086067;28;19916;-69
2023/10/07 05:27:41;;;;;;;;;;;16.90;99.90;;;;;;5065387;28;20376;-68
2023/10/07 05:30:08;;;;;;;;;;;16.90;99.90;;;;;;5061657;28;19920;-68
2023/10/07 05:32:35;;;;;;;;;;;17.00;99.90;;;;;;5079872;28;20945;-68
2023/10/07 05:35:01;;;;;;;;;;;17.00;99.90;;;;;;5047008;28;19925;-68
2023/10/07 05:37:26;;;;;;;;;;;17.00;99.90;;;;;;5068640;28;20269;-68
2023/10/07 05:39:52;;;;;;;;;;;17.00;99.90;;;;;;5061386;28;19920;-68
2023/10/07 05:42:20;;;;;;;;;;;16.90;99.90;;;;;;5068921;28;19977;-69
2023/10/07 05:44:45;;;;;;;;;;;17.00;99.90;;;;;;5070300;28;19924;-69
2023/10/07 05:47:12;;;;;;;;;;;16.90;99.90;;;;;;5065459;28;19924;-68
2023/10/07 05:49:37;;;;;;;;;;;16.90;99.90;;;;;;5051946;28;19965;-68
2023/10/07 05:52:04;;;;;;;;;;;16.90;99.90;;;;;;5066834;28;20345;-68
2023/10/07 05:54:31;;;;;;;;;;;16.90;99.90;;;;;;5067260;28;19925;-68
2023/10/07 05:56:58;;;;;;;;;;;16.90;99.90;;;;;;5066740;28;20010;-68
2023/10/07 05:59:24;;;;;;;;;;;16.90;99.90;;;;;;5051815;28;19969;-69
2023/10/07 06:01:49;;;;;;;;;;;16.90;99.90;;;;;;5067888;28;20014;-68
2023/10/07 06:04:15;;;;;;;;;;;17.00;99.90;;;;;;5083874;28;19929;-68
2023/10/07 06:06:42;;;;;;;;;;;17.00;99.90;;;;;;5075353;28;19924;-69
2023/10/07 06:09:14;;;;;;;;;;;16.90;99.90;;;;;;5078734;28;20390;-68
2023/10/07 06:11:40;;;;;;;;;;;16.90;99.90;;;;;;5068483;28;19916;-68
2023/10/07 06:14:06;;;;;;;;;;;16.90;99.90;;;;;;5065533;28;19970;-68
2023/10/07 06:16:32;;;;;;;;;;;17.00;99.90;;;;;;5049713;28;20277;-68
2023/10/07 06:18:58;;;;;;;;;;;17.00;99.90;;;;;;5062677;28;20002;-68
2023/10/07 06:21:31;;;;;;;;;;;17.00;99.90;;;;;;5082748;28;19927;-68
2023/10/07 06:24:04;;;;;;;;;;;17.00;99.90;;;;;;5083432;28;20098;-69
2023/10/07 06:26:30;;;;;;;;;;;17.00;99.90;;;;;;5084315;28;19916;-68
2023/10/07 06:28:56;;;;;;;;;;;17.00;99.90;;;;;;5066907;28;20003;-68
2023/10/07 06:31:22;;;;;;;;;;;16.90;99.90;;;;;;5065973;28;19923;-68
2023/10/07 06:34:12;;;;;;;;;;;16.90;99.90;;;;;;5062195;28;19916;-69
2023/10/07 06:36:40;;;;;;;;;;;16.90;99.90;;;;;;5070899;28;19916;-67
2023/10/07 06:39:07;;;;;;;;;;;16.90;99.90;;;;;;5064251;28;20253;-68
2023/10/07 06:41:33;;;;;;;;;;;16.90;99.90;;;;;;5078870;28;19965;-68
2023/10/07 06:43:59;;;;;;;;;;;16.90;99.90;;;;;;5076907;28;19924;-69
2023/10/07 06:46:40;;;;;;;;;;;16.90;99.90;;;;;;5081983;28;19916;-69
2023/10/07 06:49:17;;;;;;;;;;;17.00;99.90;;;;;;5063538;28;20004;-68
2023/10/07 06:51:43;;;;;;;;;;;17.00;99.90;;;;;;5063335;28;20024;-69
2023/10/07 06:54:09;;;;;;;;;;;16.90;99.90;;;;;;5080567;28;19922;-68
2023/10/07 06:56:35;;;;;;;;;;;16.90;99.90;;;;;;5064748;28;20373;-68
2023/10/07 06:59:00;;;;;;;;;;;17.00;99.90;;;;;;5062463;28;19928;-68
2023/10/07 07:01:36;;;;;;;;;;;17.00;99.90;;;;;;5059419;28;20317;-68
2023/10/07 07:04:09;;;;;;;;;;;17.00;99.90;;;;;;5063575;28;19928;-68
2023/10/07 07:06:42;;;;;;;;;;;17.00;99.90;;;;;;5058007;28;19917;-68
2023/10/07 07:12:21;;;;;;;;;;;17.10;99.90;;;;;;5076881;28;19916;-68
2023/10/07 07:15:04;;;;;;;;;;;17.10;99.90;;;;;;5041349;28;20020;-68
2023/10/07 07:17:35;;;;;;;;;;;17.10;99.90;;;;;;5063651;28;19924;-70
2023/10/07 07:22:35;;;;;;;;;;;17.10;99.90;;;;;;5062246;28;19950;-68
2023/10/07 07:25:04;;;;;;;;;;;17.20;99.90;;;;;;5062380;28;20007;-68
2023/10/07 07:27:33;;;;;;;;;;;17.20;99.90;;;;;;5067682;28;19920;-68
2023/10/07 07:30:07;;;;;;;;;;;17.30;99.90;;;;;;5060748;28;19917;-68
2023/10/07 07:32:35;;;;;;;;;;;17.30;99.90;;;;;;5063266;28;19967;-68
2023/10/07 07:35:04;;;;;;;;;;;17.40;99.90;;;;;;5082963;28;20002;-68
2023/10/07 07:37:32;;;;;;;;;;;17.40;99.90;;;;;;5065113;28;19981;-69
2023/10/07 07:40:09;;;;;;;;;;;17.40;99.90;;;;;;5065348;28;20711;-69
2023/10/07 07:42:35;;;;;;;;;;;17.50;99.90;;;;;;5058952;28;20021;-69
2023/10/07 07:45:01;;;;;;;;;;;17.50;99.90;;;;;;5082351;28;20360;-71
2023/10/07 07:47:31;;;;;;;;;;;17.50;99.90;;;;;;5067269;28;20348;-68
2023/10/07 07:49:57;;;;;;;;;;;17.50;99.90;;;;;;5068592;28;19917;-68
2023/10/07 07:52:25;;;;;;;;;;;17.60;99.90;;;;;;5061320;28;20356;-69
2023/10/07 07:54:53;;;;;;;;;;;17.60;99.90;;;;;;5065997;28;19920;-68
2023/10/07 07:57:22;;;;;;;;;;;17.70;99.90;;;;;;5049275;28;19944;-68
2023/10/07 07:59:47;;;;;;;;;;;17.70;99.90;;;;;;5062471;28;19916;-69
2023/10/07 08:02:14;;;;;;;;;;;17.80;99.90;;;;;;5081637;28;19961;-69
2023/10/07 08:04:46;;;;;;;;;;;17.80;99.90;;;;;;5071060;28;19924;-68
2023/10/07 08:07:24;;;;;;;;;;;17.80;99.90;;;;;;5066503;28;19971;-69
2023/10/07 08:09:51;;;;;;;;;;;17.90;99.90;;;;;;5051666;28;19921;-69
2023/10/07 08:12:28;;;;;;;;;;;18.00;99.90;;;;;;5062778;28;19940;-70
2023/10/07 08:15:06;;;;;;;;;;;18.00;99.90;;;;;;5070762;28;19961;-68
2023/10/07 08:17:32;;;;;;;;;;;18.00;99.90;;;;;;5069098;28;19917;-71
2023/10/07 08:20:07;;;;;;;;;;;18.10;99.90;;;;;;5061518;28;20011;-70
2023/10/07 08:22:33;;;;;;;;;;;18.10;99.90;;;;;;5083426;28;19916;-69
2023/10/07 08:25:00;;;;;;;;;;;18.00;99.90;;;;;;5070378;28;19925;-68
2023/10/07 08:27:44;;;;;;;;;;;18.10;99.90;;;;;;5084239;28;19931;-68
2023/10/07 08:30:13;;;;;;;;;;;18.20;99.90;;;;;;5054910;28;20204;-69
2023/10/07 08:32:41;;;;;;;;;;;18.10;99.90;;;;;;5068727;28;19969;-68
2023/10/07 08:35:19;;;;;;;;;;;18.10;99.90;;;;;;5055134;28;19994;-66
2023/10/07 08:37:48;;;;;;;;;;;18.10;99.90;;;;;;5066092;28;19920;-66
2023/10/07 08:40:25;;;;;;;;;;;18.10;99.90;;;;;;5065649;28;20007;-66
2023/10/07 08:42:53;;;;;;;;;;;18.10;99.90;;;;;;5056441;28;19992;-67
2023/10/07 08:45:23;;;;;;;;;;;18.10;99.90;;;;;;5079683;28;19920;-70
2023/10/07 08:47:52;;;;;;;;;;;18.10;99.90;;;;;;5058056;28;19923;-69
2023/10/07 08:50:24;;;;;;;;;;;18.20;99.90;;;;;;5082448;28;19916;-68
2023/10/07 08:52:56;;;;;;;;;;;18.30;99.90;;;;;;5067265;28;20024;-71
2023/10/07 08:55:22;;;;;;;;;;;18.40;99.90;;;;;;5056366;28;19988;-69
2023/10/07 08:57:49;;;;;;;;;;;18.40;99.90;;;;;;5067959;28;20032;-68
2023/10/07 09:00:21;;;;;;;;;;;18.50;99.90;;;;;;5073469;28;19962;-71
2023/10/07 09:02:47;;;;;;;;;;;18.60;99.90;;;;;;5084919;28;19923;-71
2023/10/07 09:05:19;;;;;;;;;;;18.60;99.90;;;;;;5053827;28;19916;-69
2023/10/07 09:07:49;;;;;;;;;;;18.60;99.90;;;;;;5075490;28;19924;-68
2023/10/07 09:10:16;;;;;;;;;;;18.70;99.90;;;;;;5054209;28;19916;-67
2023/10/07 09:12:51;;;;;;;;;;;18.70;99.90;;;;;;5066726;28;19924;-67
2023/10/07 09:15:34;;;;;;;;;;;18.80;99.90;;;;;;5055170;28;20014;-68
2023/10/07 09:18:03;;;;;;;;;;;18.70;99.90;;;;;;5071713;28;19927;-70
2023/10/07 09:20:29;;;;;;;;;;;18.70;99.90;;;;;;5053237;28;19958;-68
2023/10/07 09:23:14;;;;;;;;;;;18.70;99.90;;;;;;5063927;28;20350;-68
2023/10/07 09:25:46;;;;;;;;;;;18.70;99.90;;;;;;5070314;28;20320;-71
2023/10/07 09:28:13;;;;;;;;;;;18.60;99.90;;;;;;5082145;28;19927;-68
2023/10/07 09:33:35;;;;;;;;;;;18.50;99.90;;;;;;5064561;28;20007;-69
2023/10/07 09:38:44;;;;;;;;;;;18.50;99.90;;;;;;5063495;28;19978;-70
2023/10/07 09:41:12;;;;;;;;;;;18.50;99.90;;;;;;5049878;28;19969;-68
2023/10/07 09:43:44;;;;;;;;;;;18.50;99.90;;;;;;5053602;28;19916;-68
2023/10/07 09:46:11;;;;;;;;;;;18.50;99.90;;;;;;5031631;28;20042;-68
2023/10/07 09:48:41;;;;;;;;;;;18.50;99.90;;;;;;5042770;28;19928;-69
2023/10/07 09:51:24;;;;;;;;;;;18.50;99.90;;;;;;5047631;28;19948;-70
2023/10/07 09:53:57;;;;;;;;;;;18.50;99.90;;;;;;5059286;28;19924;-68
2023/10/07 09:56:43;;;;;;;;;;;18.50;99.90;;;;;;5036486;28;19940;-64
2023/10/07 09:59:32;;;;;;;;;;;18.50;99.90;;;;;;5059212;28;20356;-68
2023/10/07 10:02:16;;;;;;;;;;;18.50;99.90;;;;;;5048146;28;19923;-68
2023/10/07 10:04:54;;;;;;;;;;;18.50;99.90;;;;;;5053656;28;19931;-68
2023/10/07 10:07:39;;;;;;;;;;;18.70;99.90;;;;;;5048554;28;19985;-67
2023/10/07 10:10:06;;;;;;;;;;;18.80;99.90;;;;;;5060874;28;19916;-68
2023/10/07 10:12:48;;;;;;;;;;;18.80;99.90;;;;;;5057453;28;20041;-69
2023/10/07 10:17:53;;;;;;;;;;;18.90;99.90;;;;;;5073264;28;20044;-68
2023/10/07 10:20:42;;;;;;;;;;;19.00;99.90;;;;;;5058225;28;20355;-68
2023/10/07 10:23:18;;;;;;;;;;;19.10;99.90;;;;;;5064155;28;20074;-69
2023/10/07 10:25:54;;;;;;;;;;;19.20;99.90;;;;;;5079347;28;19920;-69
2023/10/07 10:28:25;;;;;;;;;;;19.30;99.90;;;;;;5053864;28;19924;-68
2023/10/07 10:30:53;;;;;;;;;;;19.30;99.90;;;;;;5051144;28;19951;-67
2023/10/07 10:33:20;;;;;;;;;;;19.40;99.90;;;;;;5065367;28;20242;-70
2023/10/07 10:35:51;;;;;;;;;;;19.60;99.90;;;;;;5082183;28;19936;-68
2023/10/07 10:38:19;;;;;;;;;;;19.80;99.90;;;;;;5063236;28;20297;-68
2023/10/07 10:40:45;;;;;;;;;;;19.90;99.90;;;;;;5065431;28;20268;-67
2023/10/07 10:43:24;;;;;;;;;;;20.10;99.90;;;;;;5070874;28;19920;-69
2023/10/07 10:45:59;;;;;;;;;;;19.90;99.90;;;;;;5055651;28;19917;-68
2023/10/07 10:48:30;;;;;;;;;;;19.80;99.90;;;;;;5082948;28;19924;-70
2023/10/07 10:50:55;;;;;;;;;;;19.60;99.90;;;;;;5065604;28;19926;-68
2023/10/07 10:53:21;;;;;;;;;;;19.60;99.90;;;;;;5063897;28;19916;-68
2023/10/07 10:55:46;;;;;;;;;;;19.50;99.90;;;;;;5068228;28;19916;-69
2023/10/07 10:58:18;;;;;;;;;;;19.40;99.90;;;;;;5066186;28;19935;-69
2023/10/07 11:00:48;;;;;;;;;;;19.40;99.90;;;;;;5058878;28;20331;-70
2023/10/07 11:03:17;;;;;;;;;;;19.40;99.90;;;;;;5066093;28;19985;-67
2023/10/07 11:05:45;;;;;;;;;;;19.40;99.90;;;;;;5071407;28;19917;-68
2023/10/07 11:08:10;;;;;;;;;;;19.40;99.90;;;;;;5063665;28;20238;-70
2023/10/07 11:10:37;;;;;;;;;;;19.40;99.90;;;;;;5078459;28;19923;-67
2023/10/07 11:13:08;;;;;;;;;;;19.40;99.90;;;;;;5071415;28;19920;-69
2023/10/07 11:15:33;;;;;;;;;;;19.40;99.90;;;;;;5060224;28;19943;-69
2023/10/07 11:18:12;;;;;;;;;;;19.40;99.90;;;;;;5053730;28;19936;-67
2023/10/07 11:20:39;;;;;;;;;;;19.40;99.90;;;;;;5074786;28;19927;-69
2023/10/07 11:23:06;;;;;;;;;;;19.40;99.90;;;;;;5057342;28;20329;-68
2023/10/07 11:25:33;;;;;;;;;;;19.30;99.90;;;;;;5079575;28;19995;-69
2023/10/07 11:27:59;;;;;;;;;;;19.40;99.90;;;;;;5071643;28;19924;-70
2023/10/07 11:30:24;;;;;;;;;;;19.40;99.90;;;;;;5082974;28;20450;-68
2023/10/07 11:32:50;;;;;;;;;;;19.30;99.90;;;;;;5047574;28;19943;-68
2023/10/07 11:35:20;;;;;;;;;;;19.30;99.90;;;;;;5063026;28;19943;-69
2023/10/07 11:37:49;;;;;;;;;;;19.20;99.90;;;;;;5045989;28;19920;-69
2023/10/07 11:40:15;;;;;;;;;;;19.20;99.90;;;;;;5049566;28;20007;-69
2023/10/07 11:42:41;;;;;;;;;;;19.10;99.90;;;;;;5068799;28;20096;-69
2023/10/07 11:45:08;;;;;;;;;;;19.10;99.90;;;;;;5065205;28;20391;-67
2023/10/07 11:47:36;;;;;;;;;;;19.10;99.90;;;;;;5047752;28;20017;-69
2023/10/07 11:50:02;;;;;;;;;;;19.00;99.90;;;;;;5065274;28;19916;-67
2023/10/07 11:52:29;;;;;;;;;;;19.00;99.90;;;;;;5052285;28;19974;-69
2023/10/07 11:54:54;;;;;;;;;;;19.00;99.90;;;;;;5062859;28;19998;-68
2023/10/07 11:57:20;;;;;;;;;;;19.00;99.90;;;;;;5034306;28;20376;-68
2023/10/07 11:59:45;;;;;;;;;;;19.00;99.90;;;;;;5057844;28;19920;-70
2023/10/07 12:02:11;;;;;;;;;;;18.90;99.90;;;;;;5061925;28;19931;-69
2023/10/07 12:04:38;;;;;;;;;;;18.80;99.90;;;;;;5061938;28;19925;-69
2023/10/07 12:07:06;;;;;;;;;;;18.80;99.90;;;;;;5048497;28;19942;-74
2023/10/07 12:09:32;;;;;;;;;;;18.90;99.90;;;;;;5048549;28;19942;-68
2023/10/07 12:12:02;;;;;;;;;;;18.80;99.90;;;;;;5049141;28;20444;-68
2023/10/07 12:14:28;;;;;;;;;;;18.90;99.90;;;;;;5063108;28;19927;-68
2023/10/07 12:16:55;;;;;;;;;;;19.00;99.90;;;;;;5064389;28;19924;-69
2023/10/07 12:19:21;;;;;;;;;;;19.10;99.90;;;;;;5059541;28;20007;-67
2023/10/07 12:21:47;;;;;;;;;;;19.30;99.90;;;;;;5065641;28;19926;-68
2023/10/07 12:24:13;;;;;;;;;;;19.40;99.90;;;;;;5077726;28;19959;-67
2023/10/07 12:26:39;;;;;;;;;;;19.40;99.90;;;;;;5047549;28;20027;-70
2023/10/07 12:29:06;;;;;;;;;;;19.40;99.90;;;;;;5073525;28;19986;-67
2023/10/07 12:31:32;;;;;;;;;;;19.40;99.90;;;;;;5047082;28;20025;-67
2023/10/07 12:33:59;;;;;;;;;;;19.30;99.90;;;;;;5055798;28;20044;-69
2023/10/07 12:36:25;;;;;;;;;;;19.30;99.90;;;;;;5042364;28;19920;-67
2023/10/07 12:38:50;;;;;;;;;;;19.40;99.90;;;;;;5056678;28;20368;-70
2023/10/07 12:41:16;;;;;;;;;;;19.50;99.90;;;;;;5057188;28;20340;-68
2023/10/07 12:43:41;;;;;;;;;;;19.40;99.90;;;;;;5061274;28;20010;-67
2023/10/07 12:46:10;;;;;;;;;;;19.30;99.90;;;;;;5050964;28;19916;-67
2023/10/07 12:48:37;;;;;;;;;;;19.30;99.90;;;;;;5069477;28;19931;-71
2023/10/07 12:51:06;;;;;;;;;;;19.20;99.90;;;;;;5025220;28;20754;-70
2023/10/07 12:53:33;;;;;;;;;;;19.10;99.90;;;;;;5069556;28;19928;-67
2023/10/07 12:55:58;;;;;;;;;;;19.10;99.90;;;;;;5043908;28;19977;-69
2023/10/07 12:58:27;;;;;;;;;;;19.10;99.90;;;;;;5071937;28;19924;-69
2023/10/07 13:00:55;;;;;;;;;;;19.30;99.90;;;;;;5036802;28;20028;-69
2023/10/07 13:03:20;;;;;;;;;;;19.30;99.90;;;;;;5051847;28;19925;-67
2023/10/07 13:05:46;;;;;;;;;;;19.30;99.90;;;;;;5047570;28;20004;-69
2023/10/07 13:08:12;;;;;;;;;;;19.50;99.90;;;;;;5070320;28;19932;-68
2023/10/07 13:10:38;;;;;;;;;;;19.50;99.90;;;;;;5070576;28;20015;-67
2023/10/07 13:13:04;;;;;;;;;;;19.50;99.90;;;;;;5064870;28;19923;-67
2023/10/07 13:15:34;;;;;;;;;;;19.40;99.90;;;;;;5067513;28;19920;-69
2023/10/07 13:18:01;;;;;;;;;;;19.50;99.90;;;;;;5046124;28;19946;-69
2023/10/07 13:20:27;;;;;;;;;;;19.50;99.90;;;;;;5030471;28;19924;-68
2023/10/07 13:22:53;;;;;;;;;;;19.60;99.90;;;;;;5048953;28;20065;-66
2023/10/07 13:25:19;;;;;;;;;;;19.60;99.90;;;;;;5045422;28;19939;-66
2023/10/07 13:27:46;;;;;;;;;;;19.60;99.90;;;;;;5036737;28;20353;-67
2023/10/07 13:30:12;;;;;;;;;;;19.60;99.90;;;;;;5051694;28;19931;-68
2023/10/07 13:32:40;;;;;;;;;;;19.70;99.90;;;;;;5033635;28;19925;-67
2023/10/07 13:35:09;;;;;;;;;;;19.80;99.90;;;;;;5051223;28;19923;-67
2023/10/07 13:37:37;;;;;;;;;;;20.00;99.90;;;;;;5052473;28;19920;-67
2023/10/07 13:40:07;;;;;;;;;;;20.00;99.90;;;;;;5047432;28;20003;-67
2023/10/07 13:42:34;;;;;;;;;;;19.90;99.90;;;;;;5012092;28;20403;-67
2023/10/07 13:45:07;;;;;;;;;;;19.80;99.90;;;;;;5060450;28;19916;-68
2023/10/07 13:47:33;;;;;;;;;;;19.70;99.90;;;;;;5019959;28;19946;-67
2023/10/07 13:49:59;;;;;;;;;;;19.70;99.90;;;;;;5065755;28;19939;-69
2023/10/07 13:52:29;;;;;;;;;;;19.60;99.90;;;;;;5027703;28;19923;-67
2023/10/07 13:57:39;;;;;;;;;;;19.50;99.90;;;;;;5033788;28;19924;-69
2023/10/07 14:00:24;;;;;;;;;;;19.50;99.90;;;;;;5042391;28;19982;-67
2023/10/07 14:02:49;;;;;;;;;;;19.50;99.90;;;;;;5039741;28;19916;-67
2023/10/07 14:05:16;;;;;;;;;;;19.40;99.90;;;;;;5055496;28;20906;-68
2023/10/07 14:07:43;;;;;;;;;;;19.40;99.90;;;;;;5028119;28;20711;-67
2023/10/07 14:10:09;;;;;;;;;;;19.40;99.90;;;;;;5038902;28;20372;-69
2023/10/07 14:12:36;;;;;;;;;;;19.30;99.90;;;;;;5041931;28;20004;-67
2023/10/07 14:15:03;;;;;;;;;;;19.30;99.90;;;;;;5039035;28;20152;-67
2023/10/07 14:17:30;;;;;;;;;;;19.30;99.90;;;;;;5029424;28;20000;-69
2023/10/07 14:19:58;;;;;;;;;;;19.20;99.90;;;;;;5038684;28;19995;-69
2023/10/07 14:22:24;;;;;;;;;;;19.20;99.90;;;;;;5027087;28;19924;-67
2023/10/07 14:24:50;;;;;;;;;;;19.20;99.90;;;;;;5034925;28;19921;-67
2023/10/07 14:27:15;;;;;;;;;;;19.10;99.90;;;;;;5023852;28;19943;-68
2023/10/07 14:29:41;;;;;;;;;;;19.10;99.90;;;;;;5041987;28;19927;-66
2023/10/07 14:32:09;;;;;;;;;;;19.00;99.90;;;;;;5034318;28;19920;-68
2023/10/07 14:34:35;;;;;;;;;;;19.00;99.90;;;;;;5034905;28;19920;-67
2023/10/07 14:37:01;;;;;;;;;;;19.00;99.90;;;;;;5022047;28;19932;-67
2023/10/07 14:39:27;;;;;;;;;;;19.00;99.90;;;;;;5047206;28;20863;-68
2023/10/07 14:41:52;;;;;;;;;;;18.90;99.90;;;;;;5022259;28;19980;-65
2023/10/07 14:44:18;;;;;;;;;;;18.90;99.90;;;;;;5046281;28;19917;-68
2023/10/07 14:46:44;;;;;;;;;;;18.80;99.90;;;;;;5017208;28;20433;-67
2023/10/07 14:49:12;;;;;;;;;;;18.70;99.90;;;;;;5034187;28;19963;-69
2023/10/07 14:51:37;;;;;;;;;;;18.70;99.90;;;;;;5021291;28;20030;-67
2023/10/07 14:54:03;;;;;;;;;;;18.60;99.90;;;;;;5035632;28;19916;-69
2023/10/07 14:56:28;;;;;;;;;;;18.60;99.90;;;;;;5027488;28;19962;-67
2023/10/07 14:58:54;;;;;;;;;;;18.60;99.90;;;;;;5038441;28;19917;-69
2023/10/07 15:01:23;;;;;;;;;;;18.60;99.90;;;;;;5019935;28;19999;-70
2023/10/07 15:03:54;;;;;;;;;;;18.50;99.90;;;;;;5033723;28;19996;-67
2023/10/07 15:06:21;;;;;;;;;;;18.60;99.90;;;;;;5025310;28;19916;-68
2023/10/07 15:08:46;;;;;;;;;;;18.50;99.90;;;;;;5038867;28;19931;-69
2023/10/07 15:11:15;;;;;;;;;;;18.20;99.90;;;;;;5037524;28;19920;-68
2023/10/07 15:13:42;;;;;;;;;;;18.10;99.90;;;;;;5029694;28;20705;-71
2023/10/07 15:16:11;;;;;;;;;;;18.30;99.90;;;;;;5038455;28;20942;-71
2023/10/07 15:18:38;;;;;;;;;;;18.40;99.90;;;;;;5038824;28;19931;-69
2023/10/07 15:21:09;;;;;;;;;;;18.40;99.90;;;;;;5028754;28;19920;-68
2023/10/07 15:23:35;;;;;;;;;;;18.30;99.90;;;;;;5028887;28;19927;-68